createdAt,value
2023-02-15T00:00:42.615Z,93.30
2023-02-15T00:03:07.183Z,93.40
2023-02-15T00:05:34.423Z,93.00
2023-02-15T00:07:58.845Z,93.10
2023-02-15T00:10:24.555Z,93.40
2023-02-15T00:12:49.043Z,93.00
2023-02-15T00:15:14.156Z,93.20
2023-02-15T00:17:38.584Z,93.30
2023-02-15T00:20:03.053Z,93.60
2023-02-15T00:22:29.669Z,93.70
2023-02-15T00:24:54.092Z,94.00
2023-02-15T00:27:18.626Z,94.10
2023-02-15T00:29:43.222Z,94.00
2023-02-15T00:32:08.151Z,93.70
2023-02-15T00:34:32.554Z,93.60
2023-02-15T00:36:57.067Z,93.90
2023-02-15T00:39:23.055Z,94.00
2023-02-15T00:41:47.757Z,93.90
2023-02-15T00:44:12.356Z,93.60
2023-02-15T00:46:36.930Z,93.90
2023-02-15T00:49:01.456Z,94.20
2023-02-15T00:51:26.591Z,93.80
2023-02-15T00:53:51.122Z,94.50
2023-02-15T00:56:20.836Z,94.30
2023-02-15T00:58:45.474Z,94.40
2023-02-15T01:01:12.038Z,94.60
2023-02-15T01:03:37.001Z,94.70
2023-02-15T01:06:02.123Z,94.80
2023-02-15T01:08:27.591Z,94.30
2023-02-15T01:10:52.022Z,94.40
2023-02-15T01:13:19.241Z,94.60
2023-02-15T01:15:44.200Z,94.80
2023-02-15T01:18:08.751Z,95.10
2023-02-15T01:20:37.697Z,94.40
2023-02-15T01:23:02.147Z,94.20
2023-02-15T01:25:27.035Z,94.30
2023-02-15T01:27:53.160Z,94.00
2023-02-15T01:30:19.683Z,94.00
2023-02-15T01:32:44.779Z,94.50
2023-02-15T01:35:10.016Z,94.10
2023-02-15T01:37:34.906Z,94.00
2023-02-15T01:40:01.097Z,94.70
2023-02-15T01:42:26.222Z,94.70
2023-02-15T01:44:53.585Z,94.50
2023-02-15T01:47:24.332Z,94.80
2023-02-15T01:49:50.000Z,94.60
2023-02-15T01:52:19.772Z,94.90
2023-02-15T01:54:47.132Z,94.90
2023-02-15T01:57:15.940Z,94.90
2023-02-15T01:59:43.794Z,94.90
2023-02-15T02:02:11.877Z,94.50
2023-02-15T02:04:42.859Z,94.80
2023-02-15T02:07:08.425Z,94.70
2023-02-15T02:09:33.083Z,95.10
2023-02-15T02:11:57.640Z,95.10
2023-02-15T02:14:22.545Z,95.30
2023-02-15T02:16:54.996Z,95.10
2023-02-15T02:20:10.248Z,95.40
2023-02-15T02:23:04.369Z,94.20
2023-02-15T02:26:05.492Z,93.90
2023-02-15T02:29:00.193Z,94.90
2023-02-15T02:31:46.617Z,94.60
2023-02-15T02:34:19.119Z,94.60
2023-02-15T02:36:51.714Z,94.50
2023-02-15T02:39:24.840Z,94.30
2023-02-15T02:41:57.934Z,94.40
2023-02-15T02:44:27.637Z,94.60
2023-02-15T02:46:55.570Z,94.60
2023-02-15T02:49:33.657Z,95.10
2023-02-15T02:52:01.221Z,94.80
2023-02-15T02:54:25.621Z,94.80
2023-02-15T02:56:52.745Z,94.80
2023-02-15T02:59:21.375Z,95.40
2023-02-15T03:01:52.306Z,95.00
2023-02-15T03:04:20.065Z,95.50
2023-02-15T03:06:50.628Z,94.80
2023-02-15T03:09:22.654Z,94.60
2023-02-15T03:11:48.246Z,94.50
2023-02-15T03:14:16.636Z,94.60
2023-02-15T03:16:45.182Z,95.40
2023-02-15T03:19:13.914Z,96.00
2023-02-15T03:21:50.504Z,95.70
2023-02-15T03:24:17.524Z,95.30
2023-02-15T03:26:44.519Z,95.10
2023-02-15T03:29:10.805Z,95.20
2023-02-15T03:31:40.001Z,95.60
2023-02-15T03:34:08.839Z,95.60
2023-02-15T03:36:41.334Z,95.50
2023-02-15T03:39:13.676Z,95.60
2023-02-15T03:41:44.373Z,96.10
2023-02-15T03:44:15.402Z,96.20
2023-02-15T03:46:46.422Z,96.40
2023-02-15T03:49:16.659Z,95.90
2023-02-15T03:51:43.876Z,94.90
2023-02-15T03:54:12.914Z,95.30
2023-02-15T03:56:39.603Z,94.70
2023-02-15T03:59:21.763Z,94.40
2023-02-15T04:01:59.526Z,94.90
2023-02-15T04:04:27.174Z,94.90
2023-02-15T04:06:51.646Z,95.00
2023-02-15T04:09:35.276Z,95.40
2023-02-15T04:11:59.696Z,95.10
2023-02-15T04:14:41.466Z,95.10
2023-02-15T04:17:08.187Z,95.30
2023-02-15T04:19:50.169Z,94.90
2023-02-15T04:22:32.264Z,95.30
2023-02-15T04:25:13.769Z,95.50
2023-02-15T04:27:38.800Z,96.10
2023-02-15T04:30:03.193Z,96.40
2023-02-15T04:32:28.180Z,96.70
2023-02-15T04:34:52.652Z,96.90
2023-02-15T04:37:17.443Z,97.10
2023-02-15T04:39:41.798Z,96.70
2023-02-15T04:42:07.685Z,96.90
2023-02-15T04:44:32.058Z,96.40
2023-02-15T04:46:56.928Z,96.90
2023-02-15T04:49:21.326Z,97.00
2023-02-15T04:51:45.869Z,96.80
2023-02-15T04:54:10.309Z,97.10
2023-02-15T04:56:35.990Z,96.90
2023-02-15T04:59:01.712Z,96.60
2023-02-15T05:01:26.255Z,96.40
2023-02-15T05:03:50.671Z,95.70
2023-02-15T05:06:16.560Z,95.30
2023-02-15T05:08:41.062Z,95.90
2023-02-15T05:11:05.466Z,96.00
2023-02-15T05:13:29.927Z,97.20
2023-02-15T05:15:56.088Z,97.80
2023-02-15T05:18:21.500Z,97.40
2023-02-15T05:20:46.232Z,97.30
2023-02-15T05:23:10.656Z,97.10
2023-02-15T05:25:52.491Z,97.40
2023-02-15T05:28:23.058Z,97.50
2023-02-15T05:30:47.809Z,97.30
2023-02-15T05:33:13.742Z,95.30
2023-02-15T05:35:38.247Z,93.40
2023-02-15T05:38:02.832Z,93.50
2023-02-15T05:40:27.670Z,92.70
2023-02-15T05:42:51.983Z,91.20
2023-02-15T05:45:16.531Z,88.70
2023-02-15T05:47:40.931Z,86.10
2023-02-15T05:50:08.038Z,86.50
2023-02-15T05:52:32.362Z,86.00
2023-02-15T05:54:56.727Z,84.90
2023-02-15T05:57:21.057Z,83.50
2023-02-15T05:59:45.595Z,83.70
2023-02-15T06:02:10.075Z,83.80
2023-02-15T06:04:34.590Z,83.60
2023-02-15T06:07:00.597Z,84.60
2023-02-15T06:09:25.342Z,86.30
2023-02-15T06:11:49.669Z,83.80
2023-02-15T06:14:14.350Z,82.50
2023-02-15T06:16:38.703Z,81.20
2023-02-15T06:19:03.528Z,79.80
2023-02-15T06:21:28.015Z,80.80
2023-02-15T06:23:53.802Z,79.60
2023-02-15T06:26:18.236Z,78.80
2023-02-15T06:28:43.153Z,78.40
2023-02-15T06:31:07.619Z,78.20
2023-02-15T06:33:34.776Z,77.30
2023-02-15T06:35:59.242Z,76.90
2023-02-15T06:38:24.088Z,76.00
2023-02-15T06:40:49.947Z,75.90
2023-02-15T06:43:14.505Z,76.50
2023-02-15T06:45:38.862Z,76.20
2023-02-15T06:48:03.333Z,76.50
2023-02-15T06:50:27.794Z,75.10
2023-02-15T06:52:57.288Z,74.80
2023-02-15T06:55:21.718Z,75.00
2023-02-15T06:57:49.376Z,75.90
2023-02-15T07:00:16.502Z,75.30
2023-02-15T07:02:40.848Z,75.90
2023-02-15T07:05:06.275Z,75.90
2023-02-15T07:07:30.892Z,76.00
2023-02-15T07:09:55.275Z,74.70
2023-02-15T07:12:37.010Z,75.00
2023-02-15T07:15:07.146Z,74.70
2023-02-15T07:17:35.846Z,76.40
2023-02-15T07:20:00.763Z,74.90
2023-02-15T07:22:25.205Z,75.90
2023-02-15T07:24:50.224Z,75.70
2023-02-15T07:27:15.006Z,74.40
2023-02-15T07:29:40.295Z,73.90
2023-02-15T07:32:06.276Z,73.80
2023-02-15T07:34:30.914Z,71.80
2023-02-15T07:36:55.365Z,71.80
2023-02-15T07:39:20.034Z,71.90
2023-02-15T07:41:44.468Z,74.40
2023-02-15T07:44:14.331Z,75.30
2023-02-15T07:46:38.966Z,74.70
2023-02-15T07:49:04.902Z,74.00
2023-02-15T07:51:29.448Z,74.60
2023-02-15T07:53:54.212Z,74.70
2023-02-15T07:56:19.996Z,73.80
2023-02-15T07:58:53.490Z,74.10
2023-02-15T08:01:18.017Z,73.50
2023-02-15T08:03:42.711Z,73.30
2023-02-15T08:06:09.205Z,73.20
2023-02-15T08:08:35.736Z,73.30
2023-02-15T08:11:18.992Z,72.10
2023-02-15T08:13:54.658Z,72.60
2023-02-15T08:16:19.266Z,71.60
2023-02-15T08:18:43.598Z,72.20
2023-02-15T08:21:09.796Z,71.70
2023-02-15T08:23:34.210Z,70.40
2023-02-15T08:26:02.501Z,69.50
2023-02-15T08:28:26.968Z,69.20
2023-02-15T08:30:51.328Z,69.20
2023-02-15T08:33:15.928Z,69.10
2023-02-15T08:35:40.238Z,69.00
2023-02-15T08:38:06.004Z,68.90
2023-02-15T08:40:30.569Z,69.60
2023-02-15T08:42:55.021Z,70.20
2023-02-15T08:45:19.623Z,70.50
2023-02-15T08:47:44.114Z,70.50
2023-02-15T08:50:09.178Z,71.70
2023-02-15T08:52:33.514Z,70.70
2023-02-15T08:54:59.435Z,70.70
2023-02-15T08:57:23.825Z,70.00
2023-02-15T08:59:50.584Z,70.00
2023-02-15T09:02:15.251Z,79.20
2023-02-15T09:04:39.749Z,69.20
2023-02-15T09:07:05.501Z,68.80
2023-02-15T09:09:30.021Z,69.60
2023-02-15T09:11:59.410Z,69.80
2023-02-15T09:14:25.473Z,69.30
2023-02-15T09:16:52.704Z,69.10
2023-02-15T13:00:28.691Z,66.50
2023-02-15T13:04:44.811Z,65.70
2023-02-15T14:18:20.522Z,67.80
2023-02-15T14:36:56.074Z,68.00
2023-02-15T14:46:01.498Z,68.00
2023-02-15T15:16:01.044Z,67.90
2023-02-15T15:20:24.957Z,67.30
2023-02-15T15:38:31.300Z,68.60
2023-02-15T15:56:00.089Z,69.90
2023-02-15T16:31:47.525Z,69.60
2023-02-15T16:39:41.441Z,69.70
2023-02-15T16:47:23.936Z,73.00
2023-02-15T16:52:12.706Z,73.90
2023-02-15T16:56:46.965Z,74.50
2023-02-15T17:04:36.580Z,74.10
2023-02-15T17:05:08.116Z,74.40
2023-02-15T17:12:23.424Z,75.50
2023-02-15T17:15:44.469Z,75.60
2023-02-15T17:18:36.789Z,76.00
2023-02-15T17:21:11.660Z,75.70
2023-02-15T17:23:44.294Z,75.70
2023-02-15T17:26:17.454Z,75.30
2023-02-15T17:28:49.014Z,75.30
2023-02-15T17:31:18.374Z,75.20
2023-02-15T17:33:43.321Z,74.90
2023-02-15T17:36:14.876Z,75.30
2023-02-15T17:38:40.747Z,75.80
2023-02-15T17:41:05.667Z,76.10
2023-02-15T17:43:30.269Z,77.00
2023-02-15T17:45:56.498Z,78.10
2023-02-15T17:48:24.394Z,78.60
2023-02-15T17:50:49.191Z,78.60
2023-02-15T17:53:18.180Z,78.90
2023-02-15T17:55:43.164Z,79.40
2023-02-15T17:58:11.339Z,79.40
2023-02-15T18:00:56.274Z,79.60
2023-02-15T18:03:38.165Z,79.40
2023-02-15T18:06:20.379Z,79.80
2023-02-15T18:09:04.291Z,79.30
2023-02-15T18:11:38.574Z,79.70
2023-02-15T18:14:03.605Z,84.20
2023-02-15T18:16:33.429Z,86.30
2023-02-15T18:18:58.178Z,86.20
2023-02-15T18:21:22.888Z,86.50
2023-02-15T18:23:49.455Z,87.20
2023-02-15T18:26:28.142Z,86.50
2023-02-15T18:28:53.752Z,86.50
2023-02-15T18:31:21.238Z,87.50
2023-02-15T18:33:49.259Z,87.40
2023-02-15T18:36:18.813Z,88.50
2023-02-15T18:38:43.940Z,88.30
2023-02-15T18:41:19.827Z,87.70
2023-02-15T18:43:44.652Z,87.10
2023-02-15T18:46:09.307Z,86.60
2023-02-15T18:48:33.820Z,89.50
2023-02-15T18:50:58.165Z,91.00
2023-02-15T18:53:23.183Z,91.50
2023-02-15T18:55:49.740Z,91.70
2023-02-15T18:58:19.704Z,91.50
2023-02-15T19:00:45.535Z,91.40
2023-02-15T19:03:17.559Z,91.30
2023-02-15T19:05:44.272Z,91.10
2023-02-15T19:08:17.969Z,91.00
2023-02-15T19:10:43.604Z,90.80
2023-02-15T19:13:11.840Z,90.60
2023-02-15T19:15:38.064Z,90.00
2023-02-15T19:18:03.698Z,90.00
2023-02-15T19:20:32.577Z,90.00
2023-02-15T19:23:03.474Z,90.40
2023-02-15T19:25:30.581Z,90.20
2023-02-15T19:27:55.761Z,90.00
2023-02-15T19:30:22.843Z,90.20
2023-02-15T19:32:49.057Z,90.10
2023-02-15T19:35:18.390Z,90.20
2023-02-15T19:37:45.443Z,90.40
2023-02-15T19:40:20.556Z,90.10
2023-02-15T19:42:45.119Z,90.00
2023-02-15T19:45:16.277Z,90.10
2023-02-15T19:47:44.409Z,90.50
2023-02-15T19:50:16.168Z,90.70
2023-02-15T19:52:41.350Z,90.30
2023-02-15T19:55:06.212Z,91.10
2023-02-15T19:57:31.627Z,91.90
2023-02-15T19:59:55.916Z,92.30
2023-02-15T20:02:20.857Z,92.70
2023-02-15T20:04:47.845Z,92.90
2023-02-15T20:07:23.394Z,93.10
2023-02-15T20:09:47.907Z,94.20
2023-02-15T20:12:21.838Z,94.40
2023-02-15T20:14:46.279Z,94.60
2023-02-15T20:17:10.721Z,94.60
2023-02-15T20:19:35.371Z,94.70
2023-02-15T20:22:01.161Z,95.30
2023-02-15T20:24:30.708Z,95.70
2023-02-15T20:26:55.320Z,96.10
2023-02-15T20:29:20.445Z,96.30
2023-02-15T20:31:47.207Z,96.80
2023-02-15T20:34:12.482Z,97.00
2023-02-15T20:36:37.178Z,97.20
2023-02-15T20:39:05.859Z,97.10
2023-02-15T20:41:37.614Z,97.30
2023-02-15T20:44:02.891Z,97.70
2023-02-15T20:46:27.801Z,97.80
2023-02-15T20:48:52.755Z,98.00
2023-02-15T20:51:19.247Z,98.20
2023-02-15T20:53:43.726Z,98.00
2023-02-15T20:56:13.423Z,97.90
2023-02-15T20:58:41.853Z,97.80
2023-02-15T21:01:11.459Z,97.90
2023-02-15T21:03:39.707Z,98.10
2023-02-15T21:06:04.234Z,98.00
2023-02-15T21:08:29.152Z,97.90
2023-02-15T21:10:55.503Z,97.80
2023-02-15T21:13:23.342Z,97.50
2023-02-15T21:15:49.512Z,97.50
2023-02-15T21:18:18.218Z,97.60
2023-02-15T21:20:47.316Z,97.70
2023-02-15T21:23:14.505Z,97.60
2023-02-15T21:25:39.272Z,97.40
2023-02-15T21:28:04.058Z,97.50
2023-02-15T21:30:29.109Z,97.50
2023-02-15T21:32:55.139Z,97.30
2023-02-15T21:35:20.365Z,96.80
2023-02-15T21:37:46.326Z,96.80
2023-02-15T21:40:18.675Z,96.40
2023-02-15T21:43:00.498Z,95.80
2023-02-15T21:45:42.416Z,95.80
2023-02-15T21:48:08.385Z,95.80
2023-02-15T21:50:50.562Z,96.10
2023-02-15T21:53:23.133Z,96.30
2023-02-15T21:55:47.544Z,96.60
2023-02-15T21:58:19.822Z,96.50
2023-02-15T22:00:45.254Z,96.60
2023-02-15T22:03:13.691Z,96.20
2023-02-15T22:05:38.900Z,96.10
2023-02-15T22:08:03.389Z,96.10
2023-02-15T22:10:30.660Z,96.10
2023-02-15T22:12:56.106Z,96.10
2023-02-15T22:15:22.526Z,96.00
2023-02-15T22:17:47.171Z,96.00
2023-02-15T22:20:17.187Z,95.60
2023-02-15T22:22:41.259Z,95.60
2023-02-15T22:25:05.687Z,95.30
2023-02-15T22:27:40.516Z,94.70
2023-02-15T22:30:06.029Z,94.50
2023-02-15T22:32:30.447Z,94.90
2023-02-15T22:34:55.694Z,95.00
2023-02-15T22:37:21.775Z,95.30
2023-02-15T22:39:46.474Z,94.70
2023-02-15T22:42:22.151Z,95.00
2023-02-15T22:44:46.710Z,95.20
2023-02-15T22:47:21.135Z,95.00
2023-02-15T22:49:45.596Z,94.90
2023-02-15T22:52:13.584Z,95.00
2023-02-15T22:54:40.082Z,94.80
2023-02-15T22:57:04.515Z,94.50
2023-02-15T22:59:34.053Z,94.70
2023-02-15T23:01:59.340Z,94.70
2023-02-15T23:04:25.287Z,94.60
2023-02-15T23:06:50.249Z,94.60
2023-02-15T23:09:15.520Z,94.50
2023-02-15T23:11:42.784Z,94.60
2023-02-15T23:14:07.258Z,94.80
2023-02-15T23:16:32.112Z,94.70
2023-02-15T23:18:56.654Z,94.40
2023-02-15T23:21:23.514Z,94.70
2023-02-15T23:23:50.602Z,94.90
2023-02-15T23:26:18.365Z,95.20
2023-02-15T23:28:44.282Z,95.30
2023-02-15T23:31:17.610Z,95.40
2023-02-15T23:33:42.294Z,95.40
2023-02-15T23:36:07.136Z,95.40
2023-02-15T23:38:33.567Z,95.50
2023-02-15T23:41:17.279Z,95.20
2023-02-15T23:43:45.732Z,95.20
2023-02-15T23:46:13.159Z,95.30
2023-02-15T23:48:41.660Z,95.50
2023-02-15T23:51:07.062Z,95.50
2023-02-15T23:53:32.000Z,95.50
2023-02-15T23:55:56.642Z,95.70
2023-02-15T23:58:23.403Z,95.80
